createdAt,value
2023-01-10T00:00:47.455Z,7.65
2023-01-10T00:03:14.614Z,7.61
2023-01-10T00:05:44.572Z,7.61
2023-01-10T00:08:16.129Z,7.66
2023-01-10T00:10:42.730Z,7.81
2023-01-10T00:13:30.227Z,7.58
2023-01-10T00:15:56.910Z,7.59
2023-01-10T00:18:23.567Z,7.65
2023-01-10T00:20:50.334Z,7.42
2023-01-10T00:23:18.508Z,7.51
2023-01-10T00:25:47.808Z,7.45
2023-01-10T00:28:14.435Z,7.71
2023-01-10T00:30:43.752Z,7.45
2023-01-10T00:33:16.878Z,7.48
2023-01-10T00:35:43.530Z,7.35
2023-01-10T00:38:22.694Z,7.37
2023-01-10T00:40:49.404Z,7.47
2023-01-10T00:43:20.601Z,7.39
2023-01-10T00:45:50.341Z,7.50
2023-01-10T00:48:17.311Z,7.40
2023-01-10T00:50:46.255Z,7.26
2023-01-10T00:53:16.300Z,7.16
2023-01-10T00:55:46.626Z,7.26
2023-01-10T00:58:16.253Z,7.15
2023-01-10T01:00:43.861Z,7.56
2023-01-10T01:03:13.903Z,7.46
2023-01-10T01:05:47.218Z,7.59
2023-01-10T01:08:17.911Z,7.62
2023-01-10T01:10:44.849Z,7.73
2023-01-10T01:13:17.957Z,8.06
2023-01-10T01:15:52.467Z,8.06
2023-01-10T01:18:21.639Z,8.08
2023-01-10T01:20:52.535Z,8.49
2023-01-10T01:23:19.198Z,8.59
2023-01-10T01:25:48.053Z,8.24
2023-01-10T01:28:15.787Z,8.26
2023-01-10T01:30:42.482Z,7.98
2023-01-10T01:33:09.078Z,8.10
2023-01-10T01:35:36.077Z,7.86
2023-01-10T01:38:02.847Z,7.82
2023-01-10T01:40:29.829Z,7.89
2023-01-10T01:43:04.353Z,8.89
2023-01-10T01:45:43.013Z,8.56
2023-01-10T01:48:21.189Z,8.21
2023-01-10T01:51:14.245Z,8.98
2023-01-10T01:53:49.045Z,8.62
2023-01-10T01:56:42.706Z,8.53
2023-01-10T01:59:16.044Z,8.21
2023-01-10T02:01:58.257Z,8.13
2023-01-10T02:04:29.041Z,7.85
2023-01-10T02:06:57.388Z,7.91
2023-01-10T02:10:03.353Z,7.75
2023-01-10T02:12:32.136Z,7.75
2023-01-10T02:14:59.728Z,7.79
2023-01-10T02:17:26.320Z,7.74
2023-01-10T02:20:10.347Z,8.19
2023-01-10T02:22:55.155Z,7.90
2023-01-10T02:25:39.820Z,7.84
2023-01-10T02:28:36.736Z,7.78
2023-01-10T02:31:27.951Z,7.79
2023-01-10T02:34:03.824Z,7.65
2023-01-10T02:36:57.349Z,7.53
2023-01-10T02:39:32.835Z,7.60
2023-01-10T02:42:13.600Z,7.54
2023-01-10T02:45:25.896Z,7.66
2023-01-10T02:47:54.732Z,7.72
2023-01-10T02:50:38.823Z,7.82
2023-01-10T02:53:11.220Z,8.11
2023-01-10T02:56:00.880Z,8.13
2023-01-10T02:58:59.723Z,8.27
2023-01-10T03:01:34.987Z,8.21
2023-01-10T03:04:29.634Z,8.00
2023-01-10T03:07:27.841Z,8.29
2023-01-10T03:09:56.707Z,8.79
2023-01-10T03:13:15.690Z,8.36
2023-01-10T03:15:50.761Z,8.66
2023-01-10T03:18:23.608Z,8.48
2023-01-10T03:20:55.793Z,8.25
2023-01-10T03:23:28.928Z,8.40
2023-01-10T03:25:57.748Z,8.12
2023-01-10T03:28:50.108Z,8.17
2023-01-10T03:31:18.861Z,7.86
2023-01-10T03:33:45.730Z,7.74
2023-01-10T03:36:29.123Z,8.12
2023-01-10T03:39:02.571Z,8.31
2023-01-10T03:41:41.488Z,7.90
2023-01-10T03:44:38.951Z,8.07
2023-01-10T03:47:13.724Z,8.22
2023-01-10T03:49:44.284Z,8.25
2023-01-10T03:52:19.897Z,8.27
2023-01-10T03:54:47.673Z,8.08
2023-01-10T03:57:23.002Z,8.12
2023-01-10T03:59:55.641Z,7.91
2023-01-10T04:02:22.238Z,7.97
2023-01-10T04:04:56.478Z,8.05
2023-01-10T04:07:23.997Z,7.99
2023-01-10T04:09:53.155Z,8.01
2023-01-10T04:12:21.784Z,7.98
2023-01-10T04:14:48.502Z,8.02
2023-01-10T04:17:18.726Z,7.99
2023-01-10T04:19:45.507Z,8.14
2023-01-10T04:22:15.612Z,8.26
2023-01-10T04:24:42.233Z,8.61
2023-01-10T04:27:11.178Z,8.30
2023-01-10T04:29:38.931Z,8.57
2023-01-10T04:32:11.655Z,8.55
2023-01-10T04:34:38.380Z,8.43
2023-01-10T04:37:06.417Z,8.51
2023-01-10T04:39:33.492Z,8.46
2023-01-10T04:42:00.166Z,8.78
2023-01-10T04:44:26.810Z,8.66
2023-01-10T04:46:53.498Z,8.68
2023-01-10T04:49:20.309Z,8.84
2023-01-10T04:51:47.817Z,8.98
2023-01-10T04:54:20.641Z,8.87
2023-01-10T04:56:49.756Z,9.00
2023-01-10T04:59:16.575Z,8.87
2023-01-10T05:01:45.189Z,9.04
2023-01-10T05:04:11.939Z,8.89
2023-01-10T05:06:41.756Z,8.89
2023-01-10T05:09:14.249Z,8.85
2023-01-10T05:11:40.999Z,8.74
2023-01-10T05:14:07.737Z,8.73
2023-01-10T05:16:34.399Z,8.94
2023-01-10T05:19:02.242Z,8.84
2023-01-10T05:21:28.833Z,8.83
2023-01-10T05:23:55.487Z,8.92
2023-01-10T05:26:26.055Z,8.95
2023-01-10T05:28:55.755Z,9.02
2023-01-10T05:31:22.478Z,8.93
2023-01-10T05:33:56.065Z,8.64
2023-01-10T05:36:22.673Z,8.81
2023-01-10T05:38:49.316Z,8.80
2023-01-10T05:41:16.035Z,8.84
2023-01-10T05:43:42.703Z,8.64
2023-01-10T05:46:09.899Z,8.85
2023-01-10T05:48:39.366Z,8.81
2023-01-10T05:51:06.331Z,9.19
2023-01-10T05:53:34.612Z,9.14
2023-01-10T05:56:02.641Z,9.21
2023-01-10T05:58:29.703Z,8.72
2023-01-10T06:00:59.242Z,9.02
2023-01-10T06:03:33.809Z,9.12
2023-01-10T06:06:02.925Z,8.93
2023-01-10T06:08:29.815Z,8.81
2023-01-10T06:10:56.421Z,8.60
2023-01-10T06:13:23.683Z,9.18
2023-01-10T06:15:50.731Z,8.76
2023-01-10T06:18:17.411Z,8.73
2023-01-10T06:20:44.698Z,8.75
2023-01-10T06:23:15.607Z,8.82
2023-01-10T06:25:44.812Z,9.08
2023-01-10T06:28:15.857Z,8.62
2023-01-10T06:30:45.708Z,9.16
2023-01-10T06:33:12.408Z,9.12
2023-01-10T06:35:46.352Z,8.80
2023-01-10T06:38:16.476Z,8.83
2023-01-10T06:40:43.663Z,8.87
2023-01-10T06:43:10.288Z,8.82
2023-01-10T06:45:36.971Z,8.72
2023-01-10T06:48:05.629Z,8.59
2023-01-10T06:50:32.196Z,8.71
2023-01-10T06:53:01.049Z,8.79
2023-01-10T06:55:31.480Z,9.05
2023-01-10T06:58:02.417Z,8.78
2023-01-10T07:00:30.534Z,9.27
2023-01-10T07:03:01.251Z,9.10
2023-01-10T07:05:28.149Z,8.91
2023-01-10T07:16:08.086Z,8.39
2023-01-10T07:18:35.819Z,8.55
2023-01-10T07:21:05.060Z,8.61
2023-01-10T07:23:34.886Z,9.10
2023-01-10T07:26:06.724Z,9.24
2023-01-10T07:28:34.090Z,8.94
2023-01-10T07:31:08.054Z,9.13
2023-01-10T07:33:34.680Z,8.90
2023-01-10T07:36:01.968Z,8.79
2023-01-10T07:38:29.100Z,8.51
2023-01-10T07:40:55.647Z,8.30
2023-01-10T07:43:22.286Z,8.39
2023-01-10T07:45:48.950Z,8.64
2023-01-10T07:48:15.543Z,8.78
2023-01-10T07:50:42.097Z,9.00
2023-01-10T07:53:11.640Z,8.96
2023-01-10T07:55:38.191Z,8.96
2023-01-10T07:58:07.636Z,8.98
2023-01-10T08:00:40.186Z,9.04
2023-01-10T08:03:07.101Z,9.03
2023-01-10T08:05:33.871Z,9.16
2023-01-10T08:08:08.024Z,9.17
2023-01-10T08:10:41.055Z,8.92
2023-01-10T08:13:18.323Z,9.11
2023-01-10T08:15:48.330Z,9.23
2023-01-10T08:18:15.053Z,9.27
2023-01-10T08:20:41.822Z,9.55
2023-01-10T08:23:08.701Z,9.37
2023-01-10T08:25:35.535Z,9.69
2023-01-10T08:28:02.827Z,9.67
2023-01-10T08:30:29.493Z,9.80
2023-01-10T08:32:56.181Z,9.91
2023-01-10T08:35:22.924Z,10.16
2023-01-10T08:37:49.577Z,9.96
2023-01-10T08:40:18.778Z,10.19
2023-01-10T08:42:52.415Z,10.20
2023-01-10T08:45:19.216Z,10.43
2023-01-10T08:47:48.368Z,10.46
2023-01-10T08:50:27.453Z,10.32
2023-01-10T08:52:54.036Z,10.39
2023-01-10T08:55:28.674Z,10.17
2023-01-10T08:57:55.349Z,10.48
2023-01-10T09:00:30.229Z,10.31
2023-01-10T09:02:57.396Z,10.48
2023-01-10T09:05:28.423Z,10.15
2023-01-10T09:08:00.327Z,10.24
2023-01-10T09:10:30.344Z,9.98
2023-01-10T09:13:00.342Z,10.00
2023-01-10T09:15:35.618Z,10.59
2023-01-10T09:18:04.293Z,10.60
2023-01-10T09:20:31.291Z,10.35
2023-01-10T09:22:57.903Z,10.54
2023-01-10T09:25:27.711Z,10.48
2023-01-10T09:28:01.780Z,10.36
2023-01-10T09:30:32.175Z,10.50
2023-01-10T09:33:01.526Z,10.48
2023-01-10T09:35:30.803Z,10.37
2023-01-10T09:37:59.664Z,10.41
2023-01-10T09:41:06.077Z,10.52
2023-01-10T09:44:01.094Z,10.54
2023-01-10T09:55:43.564Z,10.63
2023-01-10T09:58:16.058Z,10.55
2023-01-10T10:01:01.174Z,10.97
2023-01-10T10:03:57.813Z,11.25
2023-01-10T10:06:24.913Z,10.95
2023-01-10T10:08:52.565Z,10.98
2023-01-10T10:11:29.918Z,11.14
2023-01-10T10:14:06.796Z,10.97
2023-01-10T10:16:59.555Z,11.27
2023-01-10T10:19:44.198Z,11.17
2023-01-10T10:22:29.747Z,11.24
2023-01-10T10:25:11.330Z,11.41
2023-01-10T10:27:47.644Z,11.43
2023-01-10T10:30:42.497Z,11.19
2023-01-10T10:33:26.263Z,11.13
2023-01-10T10:36:23.212Z,11.26
2023-01-10T10:38:54.645Z,11.55
2023-01-10T10:41:29.917Z,11.40
2023-01-10T10:44:00.903Z,11.52
2023-01-10T10:46:32.016Z,11.53
2023-01-10T10:49:32.319Z,11.60
2023-01-10T10:52:03.743Z,11.74
2023-01-10T10:54:36.695Z,11.62
2023-01-10T10:57:05.592Z,11.57
2023-01-10T10:59:32.944Z,11.70
2023-01-10T11:02:00.520Z,11.72
2023-01-10T11:04:28.340Z,11.63
2023-01-10T11:06:58.471Z,11.62
2023-01-10T11:09:31.140Z,11.76
2023-01-10T11:12:04.873Z,11.78
2023-01-10T11:14:51.686Z,11.89
2023-01-10T11:17:34.641Z,11.80
2023-01-10T11:20:04.320Z,11.80
2023-01-10T11:22:53.467Z,11.81
2023-01-10T11:25:22.944Z,11.80
2023-01-10T11:27:59.559Z,11.89
2023-01-10T11:30:30.300Z,11.99
2023-01-10T11:33:08.195Z,11.95
2023-01-10T11:35:37.907Z,11.91
2023-01-10T11:38:20.514Z,12.09
2023-01-10T11:41:19.587Z,12.14
2023-01-10T11:43:46.127Z,12.05
2023-01-10T11:46:24.883Z,12.05
2023-01-10T11:49:12.781Z,12.05
2023-01-10T11:52:14.537Z,12.05
2023-01-10T11:54:48.019Z,12.10
2023-01-10T11:57:30.466Z,12.24
2023-01-10T12:00:01.995Z,12.24
2023-01-10T12:02:35.614Z,12.25
2023-01-10T12:05:06.623Z,12.23
2023-01-10T12:08:00.663Z,12.24
2023-01-10T12:10:28.929Z,12.28
2023-01-10T12:12:57.938Z,12.33
2023-01-10T12:15:30.037Z,12.40
2023-01-10T12:17:57.941Z,12.45
2023-01-10T12:20:28.351Z,12.48
2023-01-10T12:22:59.387Z,12.52
2023-01-10T12:25:38.367Z,12.57
2023-01-10T12:28:20.079Z,12.60
2023-01-10T12:30:48.820Z,12.69
2023-01-10T12:33:30.564Z,12.58
2023-01-10T12:36:03.405Z,12.57
2023-01-10T12:41:36.537Z,12.75
2023-01-10T12:44:11.985Z,12.74
2023-01-10T12:47:23.575Z,12.72
2023-01-10T12:50:02.611Z,12.89
2023-01-10T12:52:42.151Z,12.71
2023-01-10T12:55:13.999Z,12.75
2023-01-10T12:57:47.030Z,12.68
2023-01-10T13:00:53.639Z,12.66
2023-01-10T13:03:22.881Z,12.88
2023-01-10T13:05:50.105Z,12.63
2023-01-10T13:08:23.281Z,12.77
2023-01-10T13:10:52.971Z,12.75
2023-01-10T13:13:42.787Z,12.64
2023-01-10T13:16:47.059Z,12.62
2023-01-10T13:19:13.573Z,12.66
2023-01-10T13:21:42.256Z,12.63
2023-01-10T13:24:15.012Z,12.57
2023-01-10T13:26:57.117Z,12.54
2023-01-10T13:29:30.896Z,12.51
2023-01-10T13:32:02.550Z,12.65
2023-01-10T13:34:39.303Z,12.57
2023-01-10T13:37:13.000Z,12.62
2023-01-10T13:39:53.109Z,12.80
2023-01-10T13:42:39.869Z,12.64
2023-01-10T13:45:06.341Z,12.66
2023-01-10T13:47:40.118Z,12.69
2023-01-10T13:50:32.437Z,12.66
2023-01-10T13:53:01.882Z,12.60
2023-01-10T13:55:40.449Z,12.57
2023-01-10T13:58:15.994Z,12.72
2023-01-10T14:00:55.160Z,12.68
2023-01-10T14:04:00.659Z,12.62
2023-01-10T14:06:30.158Z,12.62
2023-01-10T14:09:02.096Z,12.62
2023-01-10T14:11:43.931Z,12.57
2023-01-10T14:14:25.934Z,12.58
2023-01-10T14:16:58.137Z,12.56
2023-01-10T14:19:32.729Z,12.67
2023-01-10T14:22:03.527Z,12.56
2023-01-10T14:24:42.446Z,12.54
2023-01-10T14:27:17.622Z,12.62
2023-01-10T14:29:59.412Z,12.63
2023-01-10T14:32:32.025Z,12.61
2023-01-10T14:35:02.433Z,12.60
2023-01-10T14:37:43.862Z,12.56
2023-01-10T14:40:43.278Z,12.49
2023-01-10T14:43:16.040Z,12.60
2023-01-10T14:45:52.886Z,12.55
2023-01-10T14:48:34.713Z,12.55
2023-01-10T14:51:21.587Z,12.37
2023-01-10T14:53:58.861Z,12.37
2023-01-10T14:56:28.967Z,12.42
2023-01-10T14:58:55.581Z,12.32
2023-01-10T15:01:34.124Z,12.32
2023-01-10T15:04:00.842Z,12.23
2023-01-10T15:06:27.448Z,12.23
2023-01-10T15:08:58.158Z,12.23
2023-01-10T15:11:27.314Z,12.24
2023-01-10T15:13:59.916Z,12.10
2023-01-10T15:16:30.301Z,12.06
2023-01-10T15:18:57.241Z,12.09
2023-01-10T15:21:24.308Z,12.28
2023-01-10T15:23:51.006Z,12.29
2023-01-10T15:26:26.826Z,12.12
2023-01-10T15:29:10.941Z,12.09
2023-01-10T15:31:41.173Z,12.09
2023-01-10T15:34:20.759Z,12.17
2023-01-10T15:36:56.836Z,12.00
2023-01-10T15:39:28.452Z,11.97
2023-01-10T15:42:02.903Z,11.89
2023-01-10T15:44:48.838Z,11.75
2023-01-10T15:47:42.493Z,11.76
2023-01-10T15:50:19.064Z,11.54
2023-01-10T15:53:02.060Z,11.45
2023-01-10T15:55:39.706Z,11.66
2023-01-10T15:58:32.705Z,11.59
2023-01-10T16:01:00.507Z,11.58
2023-01-10T16:03:44.553Z,11.52
2023-01-10T16:06:42.743Z,11.51
2023-01-10T16:09:19.970Z,11.48
2023-01-10T16:11:48.771Z,11.32
2023-01-10T16:14:15.411Z,11.46
2023-01-10T16:16:42.035Z,11.31
2023-01-10T16:19:08.831Z,11.10
2023-01-10T16:21:43.334Z,11.11
2023-01-10T16:24:31.190Z,10.99
2023-01-10T16:27:00.693Z,10.92
2023-01-10T16:29:27.909Z,10.82
2023-01-10T16:31:54.721Z,10.82
2023-01-10T16:34:24.690Z,10.87
2023-01-10T16:36:51.586Z,10.89
2023-01-10T16:39:20.803Z,10.80
2023-01-10T16:41:47.629Z,10.73
2023-01-10T16:44:14.332Z,10.84
2023-01-10T16:46:40.982Z,10.77
2023-01-10T16:49:07.537Z,10.67
2023-01-10T16:51:38.281Z,10.65
2023-01-10T16:54:04.996Z,10.45
2023-01-10T16:56:37.549Z,10.37
2023-01-10T16:59:06.193Z,10.37
2023-01-10T17:01:38.904Z,10.22
2023-01-10T17:04:12.117Z,10.24
2023-01-10T17:06:38.856Z,10.19
2023-01-10T17:09:05.589Z,10.07
2023-01-10T17:11:42.783Z,10.14
2023-01-10T17:14:17.443Z,10.10
2023-01-10T17:16:44.190Z,9.97
2023-01-10T17:19:10.823Z,9.96
2023-01-10T17:21:40.522Z,9.97
2023-01-10T17:24:09.505Z,10.07
2023-01-10T17:26:37.937Z,10.03
2023-01-10T17:29:05.427Z,9.99
2023-01-10T17:31:32.070Z,10.07
2023-01-10T17:33:58.735Z,10.08
2023-01-10T17:36:28.516Z,10.10
2023-01-10T17:38:56.190Z,10.23
2023-01-10T17:41:26.014Z,10.30
2023-01-10T17:43:53.551Z,10.32
2023-01-10T17:46:22.890Z,10.33
2023-01-10T17:48:52.307Z,10.43
2023-01-10T17:51:19.013Z,10.41
2023-01-10T17:53:45.589Z,10.52
2023-01-10T17:56:12.236Z,10.55
2023-01-10T17:58:38.863Z,10.66
2023-01-10T18:01:24.813Z,10.62
2023-01-10T18:03:52.519Z,10.54
2023-01-10T18:06:39.585Z,10.72
2023-01-10T18:09:06.161Z,10.58
2023-01-10T18:11:32.876Z,10.64
2023-01-10T18:14:05.974Z,10.69
2023-01-10T18:16:33.316Z,10.55
2023-01-10T18:18:59.974Z,10.52
2023-01-10T18:21:29.493Z,10.70
2023-01-10T18:23:56.103Z,10.58
2023-01-10T18:26:22.943Z,10.49
2023-01-10T18:28:49.502Z,10.37
2023-01-10T18:31:18.570Z,10.39
2023-01-10T18:33:46.535Z,10.42
2023-01-10T18:36:18.894Z,10.39
2023-01-10T18:38:45.850Z,10.44
2023-01-10T18:41:13.568Z,10.48
2023-01-10T18:43:40.277Z,10.38
2023-01-10T18:46:13.165Z,10.38
2023-01-10T18:48:40.325Z,10.36
2023-01-10T18:51:07.031Z,10.36
2023-01-10T18:53:33.559Z,10.37
2023-01-10T18:56:02.266Z,10.45
2023-01-10T18:58:32.613Z,10.52
2023-01-10T19:01:08.208Z,10.42
2023-01-10T19:03:38.732Z,10.77
2023-01-10T19:06:07.204Z,10.59
2023-01-10T19:08:35.425Z,10.53
2023-01-10T19:11:13.875Z,10.55
2023-01-10T19:13:41.959Z,10.43
2023-01-10T19:16:11.564Z,10.55
2023-01-10T19:18:38.884Z,10.57
2023-01-10T19:21:09.239Z,10.51
2023-01-10T19:23:35.870Z,10.43
2023-01-10T19:26:02.480Z,10.33
2023-01-10T19:28:29.610Z,10.39
2023-01-10T19:31:04.656Z,10.26
2023-01-10T19:33:32.530Z,10.27
2023-01-10T19:35:59.150Z,10.20
2023-01-10T19:38:25.854Z,10.01
2023-01-10T19:40:53.130Z,10.12
2023-01-10T19:43:19.920Z,10.06
2023-01-10T19:45:48.850Z,10.24
2023-01-10T19:48:21.492Z,10.08
2023-01-10T19:50:50.877Z,10.05
2023-01-10T19:53:19.084Z,10.10
2023-01-10T19:55:46.120Z,10.08
2023-01-10T19:58:12.795Z,10.06
2023-01-10T20:00:44.644Z,10.04
2023-01-10T20:03:14.130Z,9.84
2023-01-10T20:05:40.774Z,9.76
2023-01-10T20:08:07.408Z,9.77
2023-01-10T20:10:39.450Z,9.76
2023-01-10T20:13:05.911Z,9.78
2023-01-10T20:15:36.038Z,9.90
2023-01-10T20:18:03.074Z,9.96
2023-01-10T20:20:29.882Z,9.92
2023-01-10T20:23:02.818Z,9.99
2023-01-10T20:25:29.592Z,9.98
2023-01-10T20:28:00.138Z,10.13
2023-01-10T20:30:26.823Z,10.09
2023-01-10T20:32:55.670Z,9.98
2023-01-10T20:35:26.310Z,10.12
2023-01-10T20:37:55.974Z,10.11
2023-01-10T20:40:22.735Z,10.08
2023-01-10T20:42:51.665Z,10.12
2023-01-10T20:45:32.847Z,10.09
2023-01-10T20:48:02.639Z,9.95
2023-01-10T20:50:32.484Z,9.96
2023-01-10T20:53:00.326Z,10.02
2023-01-10T20:55:33.669Z,9.97
2023-01-10T20:58:00.433Z,9.86
2023-01-10T21:03:23.155Z,9.72
2023-01-10T21:05:51.468Z,9.73
2023-01-10T21:08:28.283Z,9.71
2023-01-10T21:11:01.526Z,9.82
2023-01-10T21:13:28.290Z,9.76
2023-01-10T21:15:57.336Z,9.85
2023-01-10T21:18:31.663Z,9.73
2023-01-10T21:21:01.401Z,9.46
2023-01-10T21:23:28.873Z,9.50
2023-01-10T21:26:06.296Z,9.51
2023-01-10T21:28:38.225Z,9.59
2023-01-10T21:31:17.948Z,9.58
2023-01-10T21:33:45.305Z,9.32
2023-01-10T21:36:12.299Z,9.36
2023-01-10T21:38:48.232Z,9.42
2023-01-10T21:41:18.911Z,9.47
2023-01-10T21:43:45.479Z,9.49
2023-01-10T21:46:12.171Z,9.52
2023-01-10T21:48:41.459Z,9.45
2023-01-10T21:51:08.021Z,9.44
2023-01-10T21:53:34.652Z,9.50
2023-01-10T21:56:01.554Z,9.30
2023-01-10T21:58:28.150Z,9.16
2023-01-10T22:00:58.978Z,9.16
2023-01-10T22:03:29.827Z,9.17
2023-01-10T22:05:56.595Z,9.12
2023-01-10T22:08:26.159Z,9.27
2023-01-10T22:10:52.705Z,9.09
2023-01-10T22:13:19.317Z,9.05
2023-01-10T22:15:45.857Z,9.18
2023-01-10T22:18:12.418Z,9.34
2023-01-10T22:20:39.020Z,9.28
2023-01-10T22:23:05.662Z,9.50
2023-01-10T22:25:32.215Z,9.41
2023-01-10T22:27:58.805Z,9.09
2023-01-10T22:30:25.352Z,9.32
2023-01-10T22:32:55.582Z,9.13
2023-01-10T22:35:27.989Z,9.13
2023-01-10T22:37:55.640Z,9.30
2023-01-10T22:40:22.872Z,8.97
2023-01-10T22:42:50.640Z,8.81
2023-01-10T22:45:17.282Z,9.10
2023-01-10T22:47:43.943Z,8.81
2023-01-10T22:50:10.705Z,9.06
2023-01-10T22:52:37.284Z,8.82
2023-01-10T22:55:04.134Z,8.76
2023-01-10T22:57:32.979Z,8.97
2023-01-10T23:00:02.244Z,8.65
2023-01-10T23:02:32.094Z,8.54
2023-01-10T23:05:04.422Z,8.76
2023-01-10T23:07:31.360Z,8.53
2023-01-10T23:10:00.577Z,8.52
2023-01-10T23:12:27.289Z,8.82
2023-01-10T23:14:58.188Z,8.44
2023-01-10T23:17:24.738Z,8.60
2023-01-10T23:19:51.281Z,8.57
2023-01-10T23:22:17.809Z,8.51
2023-01-10T23:24:44.353Z,8.48
2023-01-10T23:27:18.515Z,8.79
2023-01-10T23:29:45.071Z,8.56
2023-01-10T23:32:11.659Z,8.38
2023-01-10T23:34:41.075Z,8.72
2023-01-10T23:37:07.615Z,8.40
2023-01-10T23:39:36.978Z,8.73
2023-01-10T23:42:03.660Z,8.61
2023-01-10T23:44:30.193Z,8.93
2023-01-10T23:46:57.124Z,8.83
2023-01-10T23:49:28.051Z,8.73
2023-01-10T23:51:54.555Z,8.65
2023-01-10T23:54:21.380Z,8.67
2023-01-10T23:56:53.659Z,8.57
2023-01-10T23:59:20.926Z,8.46
